sensor_id;sensor_type;location;lat;lon;timestamp;P1;durP1;ratioP1;P2;durP2;ratioP2
14766;SDS011;7475;53.558;9.970;2023-09-30T00:01:44;13.57;;;3.97;;
14766;SDS011;7475;53.558;9.970;2023-09-30T00:04:10;18.45;;;5.00;;
14766;SDS011;7475;53.558;9.970;2023-09-30T00:06:35;16.08;;;4.07;;
14766;SDS011;7475;53.558;9.970;2023-09-30T00:09:00;13.10;;;4.38;;
14766;SDS011;7475;53.558;9.970;2023-09-30T00:11:26;13.10;;;3.90;;
14766;SDS011;7475;53.558;9.970;2023-09-30T00:13:51;13.25;;;3.28;;
14766;SDS011;7475;53.558;9.970;2023-09-30T00:16:16;9.70;;;4.05;;
14766;SDS011;7475;53.558;9.970;2023-09-30T00:18:43;14.25;;;3.80;;
14766;SDS011;7475;53.558;9.970;2023-09-30T00:21:08;16.70;;;3.67;;
14766;SDS011;7475;53.558;9.970;2023-09-30T00:23:33;12.70;;;3.60;;
14766;SDS011;7475;53.558;9.970;2023-09-30T00:25:58;17.50;;;3.97;;
14766;SDS011;7475;53.558;9.970;2023-09-30T00:28:25;11.07;;;3.65;;
14766;SDS011;7475;53.558;9.970;2023-09-30T00:30:50;13.65;;;3.45;;
14766;SDS011;7475;53.558;9.970;2023-09-30T00:33:15;10.55;;;3.80;;
14766;SDS011;7475;53.558;9.970;2023-09-30T00:35:40;9.77;;;3.08;;
14766;SDS011;7475;53.558;9.970;2023-09-30T00:38:06;16.08;;;3.75;;
14766;SDS011;7475;53.558;9.970;2023-09-30T00:40:31;11.85;;;3.45;;
14766;SDS011;7475;53.558;9.970;2023-09-30T00:42:56;11.63;;;3.20;;
14766;SDS011;7475;53.558;9.970;2023-09-30T00:45:22;12.68;;;3.45;;
14766;SDS011;7475;53.558;9.970;2023-09-30T00:47:47;12.53;;;3.47;;
14766;SDS011;7475;53.558;9.970;2023-09-30T00:50:13;13.98;;;3.75;;
14766;SDS011;7475;53.558;9.970;2023-09-30T00:52:38;14.43;;;3.63;;
14766;SDS011;7475;53.558;9.970;2023-09-30T00:55:04;11.82;;;3.15;;
14766;SDS011;7475;53.558;9.970;2023-09-30T00:57:30;14.25;;;3.95;;
14766;SDS011;7475;53.558;9.970;2023-09-30T00:59:56;15.95;;;3.75;;
14766;SDS011;7475;53.558;9.970;2023-09-30T01:02:22;12.75;;;3.58;;
14766;SDS011;7475;53.558;9.970;2023-09-30T01:04:48;12.02;;;3.60;;
14766;SDS011;7475;53.558;9.970;2023-09-30T01:07:13;11.85;;;3.28;;
14766;SDS011;7475;53.558;9.970;2023-09-30T01:09:38;16.30;;;3.50;;
14766;SDS011;7475;53.558;9.970;2023-09-30T01:12:04;11.60;;;3.22;;
14766;SDS011;7475;53.558;9.970;2023-09-30T01:14:33;12.90;;;3.58;;
14766;SDS011;7475;53.558;9.970;2023-09-30T01:16:59;12.65;;;3.78;;
14766;SDS011;7475;53.558;9.970;2023-09-30T01:19:25;9.88;;;3.55;;
14766;SDS011;7475;53.558;9.970;2023-09-30T01:21:59;12.45;;;3.53;;
14766;SDS011;7475;53.558;9.970;2023-09-30T01:24:25;13.43;;;3.60;;
14766;SDS011;7475;53.558;9.970;2023-09-30T01:26:50;14.13;;;3.60;;
14766;SDS011;7475;53.558;9.970;2023-09-30T01:29:16;22.10;;;3.72;;
14766;SDS011;7475;53.558;9.970;2023-09-30T01:31:42;12.27;;;3.20;;
14766;SDS011;7475;53.558;9.970;2023-09-30T01:34:07;10.43;;;3.67;;
14766;SDS011;7475;53.558;9.970;2023-09-30T01:36:32;13.85;;;3.72;;
14766;SDS011;7475;53.558;9.970;2023-09-30T01:38:57;13.65;;;3.35;;
14766;SDS011;7475;53.558;9.970;2023-09-30T01:41:23;12.50;;;3.83;;
14766;SDS011;7475;53.558;9.970;2023-09-30T01:43:48;10.95;;;3.15;;
14766;SDS011;7475;53.558;9.970;2023-09-30T01:46:13;14.50;;;3.55;;
14766;SDS011;7475;53.558;9.970;2023-09-30T01:48:39;15.15;;;3.88;;
14766;SDS011;7475;53.558;9.970;2023-09-30T01:51:04;15.20;;;3.73;;
14766;SDS011;7475;53.558;9.970;2023-09-30T01:53:29;17.27;;;3.70;;
14766;SDS011;7475;53.558;9.970;2023-09-30T01:55:54;13.23;;;3.75;;
14766;SDS011;7475;53.558;9.970;2023-09-30T01:58:19;16.40;;;3.67;;
14766;SDS011;7475;53.558;9.970;2023-09-30T02:00:45;18.77;;;4.33;;
14766;SDS011;7475;53.558;9.970;2023-09-30T02:03:10;14.15;;;3.72;;
14766;SDS011;7475;53.558;9.970;2023-09-30T02:05:36;12.45;;;3.85;;
14766;SDS011;7475;53.558;9.970;2023-09-30T02:08:01;10.68;;;3.83;;
14766;SDS011;7475;53.558;9.970;2023-09-30T02:10:30;14.32;;;3.97;;
14766;SDS011;7475;53.558;9.970;2023-09-30T02:12:56;13.30;;;3.70;;
14766;SDS011;7475;53.558;9.970;2023-09-30T02:15:21;12.87;;;3.57;;
14766;SDS011;7475;53.558;9.970;2023-09-30T02:17:46;17.52;;;4.32;;
14766;SDS011;7475;53.558;9.970;2023-09-30T02:20:13;11.95;;;3.72;;
14766;SDS011;7475;53.558;9.970;2023-09-30T02:22:43;15.85;;;4.53;;
14766;SDS011;7475;53.558;9.970;2023-09-30T02:25:09;15.55;;;3.70;;
14766;SDS011;7475;53.558;9.970;2023-09-30T02:27:34;12.52;;;4.20;;
14766;SDS011;7475;53.558;9.970;2023-09-30T02:30:00;15.77;;;3.80;;
14766;SDS011;7475;53.558;9.970;2023-09-30T02:32:25;17.63;;;4.35;;
14766;SDS011;7475;53.558;9.970;2023-09-30T02:34:50;14.40;;;4.40;;
14766;SDS011;7475;53.558;9.970;2023-09-30T02:37:16;12.73;;;3.75;;
14766;SDS011;7475;53.558;9.970;2023-09-30T02:39:42;14.50;;;4.43;;
14766;SDS011;7475;53.558;9.970;2023-09-30T02:42:08;13.50;;;4.15;;
14766;SDS011;7475;53.558;9.970;2023-09-30T02:44:33;10.23;;;3.28;;
14766;SDS011;7475;53.558;9.970;2023-09-30T02:46:58;16.70;;;4.53;;
14766;SDS011;7475;53.558;9.970;2023-09-30T02:49:23;14.45;;;4.45;;
14766;SDS011;7475;53.558;9.970;2023-09-30T02:51:48;13.60;;;3.80;;
14766;SDS011;7475;53.558;9.970;2023-09-30T02:54:14;16.63;;;3.90;;
14766;SDS011;7475;53.558;9.970;2023-09-30T02:56:40;16.10;;;4.30;;
14766;SDS011;7475;53.558;9.970;2023-09-30T02:59:06;14.40;;;4.28;;
14766;SDS011;7475;53.558;9.970;2023-09-30T03:01:32;17.52;;;4.40;;
14766;SDS011;7475;53.558;9.970;2023-09-30T03:03:57;14.93;;;4.28;;
14766;SDS011;7475;53.558;9.970;2023-09-30T03:06:22;19.00;;;4.20;;
14766;SDS011;7475;53.558;9.970;2023-09-30T03:08:47;14.83;;;3.77;;
14766;SDS011;7475;53.558;9.970;2023-09-30T03:11:13;13.35;;;3.92;;
14766;SDS011;7475;53.558;9.970;2023-09-30T03:13:38;15.88;;;4.07;;
14766;SDS011;7475;53.558;9.970;2023-09-30T03:16:05;12.85;;;4.45;;
14766;SDS011;7475;53.558;9.970;2023-09-30T03:18:30;16.88;;;3.92;;
14766;SDS011;7475;53.558;9.970;2023-09-30T03:20:58;17.88;;;4.30;;
14766;SDS011;7475;53.558;9.970;2023-09-30T03:23:25;15.48;;;4.70;;
14766;SDS011;7475;53.558;9.970;2023-09-30T03:25:56;15.13;;;3.95;;
14766;SDS011;7475;53.558;9.970;2023-09-30T03:28:21;13.98;;;4.40;;
14766;SDS011;7475;53.558;9.970;2023-09-30T03:30:47;11.25;;;3.80;;
14766;SDS011;7475;53.558;9.970;2023-09-30T03:33:12;15.07;;;4.33;;
14766;SDS011;7475;53.558;9.970;2023-09-30T03:35:38;14.30;;;4.30;;
14766;SDS011;7475;53.558;9.970;2023-09-30T03:38:03;12.00;;;4.10;;
14766;SDS011;7475;53.558;9.970;2023-09-30T03:40:28;17.00;;;4.35;;
14766;SDS011;7475;53.558;9.970;2023-09-30T03:42:54;14.90;;;5.07;;
14766;SDS011;7475;53.558;9.970;2023-09-30T03:45:19;16.13;;;4.40;;
14766;SDS011;7475;53.558;9.970;2023-09-30T03:47:45;14.63;;;4.15;;
14766;SDS011;7475;53.558;9.970;2023-09-30T03:50:10;14.45;;;4.05;;
14766;SDS011;7475;53.558;9.970;2023-09-30T03:52:39;14.20;;;4.68;;
14766;SDS011;7475;53.558;9.970;2023-09-30T03:55:05;14.48;;;3.95;;
14766;SDS011;7475;53.558;9.970;2023-09-30T03:57:31;11.43;;;3.55;;
14766;SDS011;7475;53.558;9.970;2023-09-30T03:59:56;14.10;;;4.75;;
14766;SDS011;7475;53.558;9.970;2023-09-30T04:02:22;14.40;;;4.45;;
14766;SDS011;7475;53.558;9.970;2023-09-30T04:04:47;15.88;;;5.35;;
14766;SDS011;7475;53.558;9.970;2023-09-30T04:07:14;17.13;;;4.75;;
14766;SDS011;7475;53.558;9.970;2023-09-30T04:09:40;15.82;;;5.30;;
14766;SDS011;7475;53.558;9.970;2023-09-30T04:12:05;16.30;;;5.03;;
14766;SDS011;7475;53.558;9.970;2023-09-30T04:14:30;15.05;;;4.60;;
14766;SDS011;7475;53.558;9.970;2023-09-30T04:16:55;15.73;;;5.00;;
14766;SDS011;7475;53.558;9.970;2023-09-30T04:19:20;17.63;;;5.20;;
14766;SDS011;7475;53.558;9.970;2023-09-30T04:21:46;12.63;;;4.38;;
14766;SDS011;7475;53.558;9.970;2023-09-30T04:24:12;15.18;;;4.30;;
14766;SDS011;7475;53.558;9.970;2023-09-30T04:26:37;15.98;;;4.00;;
14766;SDS011;7475;53.558;9.970;2023-09-30T04:29:03;16.73;;;4.80;;
14766;SDS011;7475;53.558;9.970;2023-09-30T04:31:28;19.77;;;5.13;;
14766;SDS011;7475;53.558;9.970;2023-09-30T04:33:53;15.27;;;5.05;;
14766;SDS011;7475;53.558;9.970;2023-09-30T04:36:19;13.07;;;4.80;;
14766;SDS011;7475;53.558;9.970;2023-09-30T04:38:44;20.77;;;5.38;;
14766;SDS011;7475;53.558;9.970;2023-09-30T04:41:10;17.23;;;4.47;;
14766;SDS011;7475;53.558;9.970;2023-09-30T04:43:35;14.68;;;4.22;;
14766;SDS011;7475;53.558;9.970;2023-09-30T04:46:03;15.55;;;5.00;;
14766;SDS011;7475;53.558;9.970;2023-09-30T04:48:29;15.93;;;4.70;;
14766;SDS011;7475;53.558;9.970;2023-09-30T04:50:54;15.05;;;4.80;;
14766;SDS011;7475;53.558;9.970;2023-09-30T04:53:20;16.95;;;5.32;;
14766;SDS011;7475;53.558;9.970;2023-09-30T04:55:45;18.83;;;4.82;;
14766;SDS011;7475;53.558;9.970;2023-09-30T04:58:10;19.83;;;4.60;;
14766;SDS011;7475;53.558;9.970;2023-09-30T05:00:36;16.08;;;4.97;;
14766;SDS011;7475;53.558;9.970;2023-09-30T05:03:01;14.57;;;5.30;;
14766;SDS011;7475;53.558;9.970;2023-09-30T05:05:26;18.85;;;4.53;;
14766;SDS011;7475;53.558;9.970;2023-09-30T05:07:53;17.33;;;5.07;;
14766;SDS011;7475;53.558;9.970;2023-09-30T05:10:18;20.75;;;5.05;;
14766;SDS011;7475;53.558;9.970;2023-09-30T05:12:44;13.90;;;4.47;;
14766;SDS011;7475;53.558;9.970;2023-09-30T05:15:12;15.20;;;4.45;;
14766;SDS011;7475;53.558;9.970;2023-09-30T05:17:39;13.70;;;4.68;;
14766;SDS011;7475;53.558;9.970;2023-09-30T05:20:05;14.75;;;4.80;;
14766;SDS011;7475;53.558;9.970;2023-09-30T05:22:32;14.00;;;4.50;;
14766;SDS011;7475;53.558;9.970;2023-09-30T05:24:57;15.32;;;4.55;;
14766;SDS011;7475;53.558;9.970;2023-09-30T05:27:22;17.42;;;5.30;;
14766;SDS011;7475;53.558;9.970;2023-09-30T05:29:47;15.25;;;4.93;;
14766;SDS011;7475;53.558;9.970;2023-09-30T05:32:13;14.48;;;4.72;;
14766;SDS011;7475;53.558;9.970;2023-09-30T05:34:39;14.02;;;4.47;;
14766;SDS011;7475;53.558;9.970;2023-09-30T05:37:04;17.02;;;5.00;;
14766;SDS011;7475;53.558;9.970;2023-09-30T05:39:30;17.33;;;4.95;;
14766;SDS011;7475;53.558;9.970;2023-09-30T05:41:56;17.58;;;4.40;;
14766;SDS011;7475;53.558;9.970;2023-09-30T05:44:21;14.30;;;4.78;;
14766;SDS011;7475;53.558;9.970;2023-09-30T05:46:47;14.70;;;4.82;;
14766;SDS011;7475;53.558;9.970;2023-09-30T05:49:12;14.85;;;4.35;;
14766;SDS011;7475;53.558;9.970;2023-09-30T05:51:41;16.63;;;5.55;;
14766;SDS011;7475;53.558;9.970;2023-09-30T05:54:07;15.45;;;4.97;;
14766;SDS011;7475;53.558;9.970;2023-09-30T05:56:34;17.17;;;4.93;;
14766;SDS011;7475;53.558;9.970;2023-09-30T05:59:00;15.73;;;5.30;;
14766;SDS011;7475;53.558;9.970;2023-09-30T06:01:25;14.50;;;4.72;;
14766;SDS011;7475;53.558;9.970;2023-09-30T06:03:50;15.10;;;5.00;;
14766;SDS011;7475;53.558;9.970;2023-09-30T06:06:16;12.98;;;4.50;;
14766;SDS011;7475;53.558;9.970;2023-09-30T06:08:42;16.25;;;5.28;;
14766;SDS011;7475;53.558;9.970;2023-09-30T06:11:16;8.48;;;4.10;;
14766;SDS011;7475;53.558;9.970;2023-09-30T06:13:41;16.70;;;4.80;;
14766;SDS011;7475;53.558;9.970;2023-09-30T06:16:06;17.52;;;4.72;;
14766;SDS011;7475;53.558;9.970;2023-09-30T06:18:31;15.13;;;4.70;;
14766;SDS011;7475;53.558;9.970;2023-09-30T06:20:57;17.67;;;4.53;;
14766;SDS011;7475;53.558;9.970;2023-09-30T06:23:22;14.90;;;4.88;;
14766;SDS011;7475;53.558;9.970;2023-09-30T06:25:48;18.13;;;4.88;;
14766;SDS011;7475;53.558;9.970;2023-09-30T06:28:13;15.23;;;4.57;;
14766;SDS011;7475;53.558;9.970;2023-09-30T06:30:39;11.95;;;4.28;;
14766;SDS011;7475;53.558;9.970;2023-09-30T06:33:06;13.55;;;4.68;;
14766;SDS011;7475;53.558;9.970;2023-09-30T06:35:32;13.35;;;3.88;;
14766;SDS011;7475;53.558;9.970;2023-09-30T06:38:03;13.55;;;4.20;;
14766;SDS011;7475;53.558;9.970;2023-09-30T06:40:31;13.55;;;5.15;;
14766;SDS011;7475;53.558;9.970;2023-09-30T06:42:56;14.77;;;4.82;;
14766;SDS011;7475;53.558;9.970;2023-09-30T06:45:22;13.10;;;4.80;;
14766;SDS011;7475;53.558;9.970;2023-09-30T06:47:47;11.90;;;4.40;;
14766;SDS011;7475;53.558;9.970;2023-09-30T06:50:13;14.87;;;4.93;;
14766;SDS011;7475;53.558;9.970;2023-09-30T06:52:41;11.55;;;4.43;;
14766;SDS011;7475;53.558;9.970;2023-09-30T06:55:07;12.80;;;4.88;;
14766;SDS011;7475;53.558;9.970;2023-09-30T06:57:36;15.35;;;4.40;;
14766;SDS011;7475;53.558;9.970;2023-09-30T07:00:05;9.52;;;4.22;;
14766;SDS011;7475;53.558;9.970;2023-09-30T07:02:33;13.20;;;4.78;;
14766;SDS011;7475;53.558;9.970;2023-09-30T07:04:58;12.70;;;4.40;;
14766;SDS011;7475;53.558;9.970;2023-09-30T07:07:24;13.93;;;3.77;;
14766;SDS011;7475;53.558;9.970;2023-09-30T07:09:49;12.60;;;3.53;;
14766;SDS011;7475;53.558;9.970;2023-09-30T07:12:14;9.50;;;3.93;;
14766;SDS011;7475;53.558;9.970;2023-09-30T07:14:40;15.00;;;5.32;;
14766;SDS011;7475;53.558;9.970;2023-09-30T07:17:05;13.77;;;4.25;;
14766;SDS011;7475;53.558;9.970;2023-09-30T07:19:31;13.65;;;3.97;;
14766;SDS011;7475;53.558;9.970;2023-09-30T07:21:56;14.77;;;3.63;;
14766;SDS011;7475;53.558;9.970;2023-09-30T07:24:21;13.88;;;4.53;;
14766;SDS011;7475;53.558;9.970;2023-09-30T07:26:46;13.32;;;3.70;;
14766;SDS011;7475;53.558;9.970;2023-09-30T07:29:12;11.60;;;4.27;;
14766;SDS011;7475;53.558;9.970;2023-09-30T07:31:37;14.53;;;3.63;;
14766;SDS011;7475;53.558;9.970;2023-09-30T07:34:02;9.27;;;3.38;;
14766;SDS011;7475;53.558;9.970;2023-09-30T07:36:27;8.48;;;3.72;;
14766;SDS011;7475;53.558;9.970;2023-09-30T07:38:52;12.00;;;3.88;;
14766;SDS011;7475;53.558;9.970;2023-09-30T07:41:18;11.63;;;3.58;;
14766;SDS011;7475;53.558;9.970;2023-09-30T07:43:43;11.80;;;4.05;;
14766;SDS011;7475;53.558;9.970;2023-09-30T07:46:08;10.00;;;3.33;;
14766;SDS011;7475;53.558;9.970;2023-09-30T07:48:34;10.13;;;3.55;;
14766;SDS011;7475;53.558;9.970;2023-09-30T07:51:00;12.73;;;3.53;;
14766;SDS011;7475;53.558;9.970;2023-09-30T07:53:25;9.63;;;3.13;;
14766;SDS011;7475;53.558;9.970;2023-09-30T07:55:50;9.80;;;3.40;;
14766;SDS011;7475;53.558;9.970;2023-09-30T07:58:15;15.93;;;3.35;;
14766;SDS011;7475;53.558;9.970;2023-09-30T08:00:41;9.00;;;2.70;;
14766;SDS011;7475;53.558;9.970;2023-09-30T08:03:06;8.98;;;3.08;;
14766;SDS011;7475;53.558;9.970;2023-09-30T08:05:31;10.10;;;3.30;;
14766;SDS011;7475;53.558;9.970;2023-09-30T08:07:57;9.25;;;2.85;;
14766;SDS011;7475;53.558;9.970;2023-09-30T08:10:22;9.50;;;3.22;;
14766;SDS011;7475;53.558;9.970;2023-09-30T08:12:47;8.90;;;3.30;;
14766;SDS011;7475;53.558;9.970;2023-09-30T08:15:14;7.13;;;2.83;;
14766;SDS011;7475;53.558;9.970;2023-09-30T08:17:40;8.00;;;2.92;;
14766;SDS011;7475;53.558;9.970;2023-09-30T08:20:05;6.60;;;2.42;;
14766;SDS011;7475;53.558;9.970;2023-09-30T08:22:31;12.52;;;2.95;;
14766;SDS011;7475;53.558;9.970;2023-09-30T08:24:56;7.37;;;2.67;;
14766;SDS011;7475;53.558;9.970;2023-09-30T08:27:21;5.80;;;2.60;;
14766;SDS011;7475;53.558;9.970;2023-09-30T08:29:49;10.13;;;2.53;;
14766;SDS011;7475;53.558;9.970;2023-09-30T08:32:14;9.27;;;2.92;;
14766;SDS011;7475;53.558;9.970;2023-09-30T08:34:39;13.38;;;3.05;;
14766;SDS011;7475;53.558;9.970;2023-09-30T08:37:04;10.43;;;3.27;;
14766;SDS011;7475;53.558;9.970;2023-09-30T08:39:30;7.32;;;2.95;;
14766;SDS011;7475;53.558;9.970;2023-09-30T08:41:55;11.33;;;2.87;;
14766;SDS011;7475;53.558;9.970;2023-09-30T08:44:20;9.25;;;2.92;;
14766;SDS011;7475;53.558;9.970;2023-09-30T08:46:45;8.93;;;3.15;;
14766;SDS011;7475;53.558;9.970;2023-09-30T08:49:11;6.72;;;2.40;;
14766;SDS011;7475;53.558;9.970;2023-09-30T08:51:36;8.43;;;2.60;;
14766;SDS011;7475;53.558;9.970;2023-09-30T08:54:01;10.65;;;3.17;;
14766;SDS011;7475;53.558;9.970;2023-09-30T08:56:29;8.80;;;2.83;;
14766;SDS011;7475;53.558;9.970;2023-09-30T08:58:56;10.38;;;3.30;;
14766;SDS011;7475;53.558;9.970;2023-09-30T09:01:22;11.63;;;2.90;;
14766;SDS011;7475;53.558;9.970;2023-09-30T09:03:48;7.53;;;2.58;;
14766;SDS011;7475;53.558;9.970;2023-09-30T09:06:17;10.18;;;2.85;;
14766;SDS011;7475;53.558;9.970;2023-09-30T09:08:43;10.68;;;2.83;;
14766;SDS011;7475;53.558;9.970;2023-09-30T09:11:08;10.50;;;2.93;;
14766;SDS011;7475;53.558;9.970;2023-09-30T09:14:07;7.38;;;2.70;;
14766;SDS011;7475;53.558;9.970;2023-09-30T09:16:25;8.65;;;2.33;;
14766;SDS011;7475;53.558;9.970;2023-09-30T09:18:51;8.40;;;2.45;;
14766;SDS011;7475;53.558;9.970;2023-09-30T09:21:20;9.80;;;2.80;;
14766;SDS011;7475;53.558;9.970;2023-09-30T09:23:48;8.35;;;2.72;;
14766;SDS011;7475;53.558;9.970;2023-09-30T09:26:23;10.27;;;3.05;;
14766;SDS011;7475;53.558;9.970;2023-09-30T09:28:49;8.00;;;2.55;;
14766;SDS011;7475;53.558;9.970;2023-09-30T09:33:47;7.45;;;2.30;;
14766;SDS011;7475;53.558;9.970;2023-09-30T09:36:12;9.38;;;2.58;;
14766;SDS011;7475;53.558;9.970;2023-09-30T09:39:10;8.87;;;2.40;;
14766;SDS011;7475;53.558;9.970;2023-09-30T09:41:28;9.40;;;2.35;;
14766;SDS011;7475;53.558;9.970;2023-09-30T09:43:54;13.13;;;2.57;;
14766;SDS011;7475;53.558;9.970;2023-09-30T09:46:20;6.80;;;2.47;;
14766;SDS011;7475;53.558;9.970;2023-09-30T09:48:46;8.77;;;2.40;;
14766;SDS011;7475;53.558;9.970;2023-09-30T09:51:13;8.93;;;2.20;;
14766;SDS011;7475;53.558;9.970;2023-09-30T09:53:38;7.22;;;2.28;;
14766;SDS011;7475;53.558;9.970;2023-09-30T09:56:05;8.90;;;2.20;;
14766;SDS011;7475;53.558;9.970;2023-09-30T09:58:34;9.43;;;3.08;;
14766;SDS011;7475;53.558;9.970;2023-09-30T10:01:01;8.75;;;2.50;;
14766;SDS011;7475;53.558;9.970;2023-09-30T10:03:27;10.02;;;2.80;;
14766;SDS011;7475;53.558;9.970;2023-09-30T10:05:52;14.60;;;2.77;;
14766;SDS011;7475;53.558;9.970;2023-09-30T10:08:17;10.80;;;2.90;;
14766;SDS011;7475;53.558;9.970;2023-09-30T10:10:44;8.75;;;2.60;;
14766;SDS011;7475;53.558;9.970;2023-09-30T10:13:48;10.68;;;2.90;;
14766;SDS011;7475;53.558;9.970;2023-09-30T10:15:55;10.00;;;2.58;;
14766;SDS011;7475;53.558;9.970;2023-09-30T10:18:20;7.53;;;2.30;;
14766;SDS011;7475;53.558;9.970;2023-09-30T10:20:45;7.40;;;2.27;;
14766;SDS011;7475;53.558;9.970;2023-09-30T10:23:28;10.93;;;2.85;;
14766;SDS011;7475;53.558;9.970;2023-09-30T10:28:39;11.20;;;2.55;;
14766;SDS011;7475;53.558;9.970;2023-09-30T10:33:35;7.47;;;2.30;;
14766;SDS011;7475;53.558;9.970;2023-09-30T10:36:00;7.82;;;2.70;;
14766;SDS011;7475;53.558;9.970;2023-09-30T10:38:46;9.23;;;2.28;;
14766;SDS011;7475;53.558;9.970;2023-09-30T10:41:14;7.55;;;2.40;;
14766;SDS011;7475;53.558;9.970;2023-09-30T10:43:56;7.65;;;2.20;;
14766;SDS011;7475;53.558;9.970;2023-09-30T10:48:52;7.60;;;2.25;;
14766;SDS011;7475;53.558;9.970;2023-09-30T10:51:18;7.57;;;2.08;;
14766;SDS011;7475;53.558;9.970;2023-09-30T10:53:47;7.72;;;1.92;;
14766;SDS011;7475;53.558;9.970;2023-09-30T10:56:12;7.47;;;2.40;;
14766;SDS011;7475;53.558;9.970;2023-09-30T10:58:44;7.00;;;2.28;;
14766;SDS011;7475;53.558;9.970;2023-09-30T11:01:11;7.05;;;2.22;;
14766;SDS011;7475;53.558;9.970;2023-09-30T11:03:36;7.78;;;2.25;;
14766;SDS011;7475;53.558;9.970;2023-09-30T11:06:02;8.82;;;2.00;;
14766;SDS011;7475;53.558;9.970;2023-09-30T11:08:28;9.68;;;2.30;;
14766;SDS011;7475;53.558;9.970;2023-09-30T11:10:54;11.73;;;2.28;;
14766;SDS011;7475;53.558;9.970;2023-09-30T11:13:20;5.87;;;2.00;;
14766;SDS011;7475;53.558;9.970;2023-09-30T11:15:47;6.43;;;2.13;;
14766;SDS011;7475;53.558;9.970;2023-09-30T11:18:24;7.00;;;2.08;;
14766;SDS011;7475;53.558;9.970;2023-09-30T11:20:49;13.15;;;2.45;;
14766;SDS011;7475;53.558;9.970;2023-09-30T11:23:15;7.35;;;1.90;;
14766;SDS011;7475;53.558;9.970;2023-09-30T11:25:40;8.25;;;2.22;;
14766;SDS011;7475;53.558;9.970;2023-09-30T11:28:40;7.57;;;1.98;;
14766;SDS011;7475;53.558;9.970;2023-09-30T11:33:23;6.13;;;2.00;;
14766;SDS011;7475;53.558;9.970;2023-09-30T11:36:22;6.32;;;2.20;;
14766;SDS011;7475;53.558;9.970;2023-09-30T11:38:44;6.20;;;1.80;;
14766;SDS011;7475;53.558;9.970;2023-09-30T11:41:09;7.78;;;2.28;;
14766;SDS011;7475;53.558;9.970;2023-09-30T11:43:35;5.57;;;1.63;;
14766;SDS011;7475;53.558;9.970;2023-09-30T11:46:07;7.45;;;2.45;;
14766;SDS011;7475;53.558;9.970;2023-09-30T11:48:33;6.35;;;2.05;;
14766;SDS011;7475;53.558;9.970;2023-09-30T11:51:00;9.30;;;2.42;;
14766;SDS011;7475;53.558;9.970;2023-09-30T11:53:28;6.15;;;2.63;;
14766;SDS011;7475;53.558;9.970;2023-09-30T11:55:53;7.18;;;1.83;;
14766;SDS011;7475;53.558;9.970;2023-09-30T11:58:21;5.22;;;2.00;;
14766;SDS011;7475;53.558;9.970;2023-09-30T12:00:47;6.20;;;1.90;;
14766;SDS011;7475;53.558;9.970;2023-09-30T12:03:15;7.50;;;2.20;;
14766;SDS011;7475;53.558;9.970;2023-09-30T12:05:41;7.03;;;1.75;;
14766;SDS011;7475;53.558;9.970;2023-09-30T12:08:06;5.55;;;1.75;;
14766;SDS011;7475;53.558;9.970;2023-09-30T12:10:31;5.60;;;1.67;;
14766;SDS011;7475;53.558;9.970;2023-09-30T12:12:57;4.80;;;1.63;;
14766;SDS011;7475;53.558;9.970;2023-09-30T12:15:22;10.60;;;2.37;;
14766;SDS011;7475;53.558;9.970;2023-09-30T12:17:47;3.17;;;1.50;;
14766;SDS011;7475;53.558;9.970;2023-09-30T12:20:12;5.33;;;1.80;;
14766;SDS011;7475;53.558;9.970;2023-09-30T12:22:40;8.38;;;2.15;;
14766;SDS011;7475;53.558;9.970;2023-09-30T12:25:06;11.13;;;2.30;;
14766;SDS011;7475;53.558;9.970;2023-09-30T12:27:33;9.25;;;3.53;;
14766;SDS011;7475;53.558;9.970;2023-09-30T12:29:58;9.47;;;2.97;;
14766;SDS011;7475;53.558;9.970;2023-09-30T12:32:24;7.30;;;2.83;;
14766;SDS011;7475;53.558;9.970;2023-09-30T12:34:50;8.93;;;2.50;;
14766;SDS011;7475;53.558;9.970;2023-09-30T12:37:16;8.43;;;1.80;;
14766;SDS011;7475;53.558;9.970;2023-09-30T12:39:41;5.70;;;1.98;;
14766;SDS011;7475;53.558;9.970;2023-09-30T12:42:07;7.10;;;2.55;;
14766;SDS011;7475;53.558;9.970;2023-09-30T12:44:34;3.65;;;1.40;;
14766;SDS011;7475;53.558;9.970;2023-09-30T12:46:59;6.33;;;1.67;;
14766;SDS011;7475;53.558;9.970;2023-09-30T12:49:24;4.67;;;1.30;;
14766;SDS011;7475;53.558;9.970;2023-09-30T12:51:50;3.60;;;1.50;;
14766;SDS011;7475;53.558;9.970;2023-09-30T12:54:15;6.30;;;2.15;;
14766;SDS011;7475;53.558;9.970;2023-09-30T12:56:43;5.78;;;1.92;;
14766;SDS011;7475;53.558;9.970;2023-09-30T12:59:08;3.17;;;1.45;;
14766;SDS011;7475;53.558;9.970;2023-09-30T13:01:33;5.87;;;2.13;;
14766;SDS011;7475;53.558;9.970;2023-09-30T13:03:59;7.03;;;2.25;;
14766;SDS011;7475;53.558;9.970;2023-09-30T13:06:24;6.40;;;2.00;;
14766;SDS011;7475;53.558;9.970;2023-09-30T13:08:49;5.47;;;1.80;;
14766;SDS011;7475;53.558;9.970;2023-09-30T13:11:15;8.13;;;2.00;;
14766;SDS011;7475;53.558;9.970;2023-09-30T13:13:40;5.78;;;1.80;;
14766;SDS011;7475;53.558;9.970;2023-09-30T13:16:05;6.25;;;1.92;;
14766;SDS011;7475;53.558;9.970;2023-09-30T13:18:32;6.35;;;1.88;;
14766;SDS011;7475;53.558;9.970;2023-09-30T13:20:57;7.43;;;2.13;;
14766;SDS011;7475;53.558;9.970;2023-09-30T13:23:22;9.95;;;2.47;;
14766;SDS011;7475;53.558;9.970;2023-09-30T13:25:48;4.55;;;1.85;;
14766;SDS011;7475;53.558;9.970;2023-09-30T13:28:13;6.45;;;1.80;;
14766;SDS011;7475;53.558;9.970;2023-09-30T13:30:38;13.80;;;6.18;;
14766;SDS011;7475;53.558;9.970;2023-09-30T13:33:03;10.53;;;5.07;;
14766;SDS011;7475;53.558;9.970;2023-09-30T13:35:29;8.30;;;2.95;;
14766;SDS011;7475;53.558;9.970;2023-09-30T13:37:54;8.60;;;3.95;;
14766;SDS011;7475;53.558;9.970;2023-09-30T13:40:19;8.17;;;4.67;;
14766;SDS011;7475;53.558;9.970;2023-09-30T13:42:45;7.70;;;2.73;;
14766;SDS011;7475;53.558;9.970;2023-09-30T13:45:10;7.30;;;2.95;;
14766;SDS011;7475;53.558;9.970;2023-09-30T13:47:36;8.30;;;2.40;;
14766;SDS011;7475;53.558;9.970;2023-09-30T13:50:01;6.35;;;1.90;;
14766;SDS011;7475;53.558;9.970;2023-09-30T13:52:28;5.15;;;1.85;;
14766;SDS011;7475;53.558;9.970;2023-09-30T13:54:53;7.00;;;1.77;;
14766;SDS011;7475;53.558;9.970;2023-09-30T13:57:20;20.55;;;14.68;;
14766;SDS011;7475;53.558;9.970;2023-09-30T13:59:45;7.57;;;1.83;;
14766;SDS011;7475;53.558;9.970;2023-09-30T14:02:11;5.32;;;2.33;;
14766;SDS011;7475;53.558;9.970;2023-09-30T14:04:37;4.30;;;2.15;;
14766;SDS011;7475;53.558;9.970;2023-09-30T14:07:02;6.73;;;2.07;;
14766;SDS011;7475;53.558;9.970;2023-09-30T14:09:28;14.43;;;2.13;;
14766;SDS011;7475;53.558;9.970;2023-09-30T14:11:53;5.65;;;1.73;;
14766;SDS011;7475;53.558;9.970;2023-09-30T14:14:19;6.93;;;2.00;;
14766;SDS011;7475;53.558;9.970;2023-09-30T14:16:44;6.85;;;1.80;;
14766;SDS011;7475;53.558;9.970;2023-09-30T14:19:09;5.90;;;1.87;;
14766;SDS011;7475;53.558;9.970;2023-09-30T14:21:34;5.63;;;1.80;;
14766;SDS011;7475;53.558;9.970;2023-09-30T14:24:00;6.05;;;1.80;;
14766;SDS011;7475;53.558;9.970;2023-09-30T14:26:27;4.55;;;1.77;;
14766;SDS011;7475;53.558;9.970;2023-09-30T14:28:52;6.70;;;2.72;;
14766;SDS011;7475;53.558;9.970;2023-09-30T14:31:17;7.73;;;2.40;;
14766;SDS011;7475;53.558;9.970;2023-09-30T14:33:42;8.48;;;2.38;;
14766;SDS011;7475;53.558;9.970;2023-09-30T14:36:07;7.95;;;2.83;;
14766;SDS011;7475;53.558;9.970;2023-09-30T14:38:33;8.00;;;1.95;;
14766;SDS011;7475;53.558;9.970;2023-09-30T14:40:58;10.25;;;3.95;;
14766;SDS011;7475;53.558;9.970;2023-09-30T14:43:23;10.00;;;3.33;;
14766;SDS011;7475;53.558;9.970;2023-09-30T14:45:48;7.15;;;2.70;;
14766;SDS011;7475;53.558;9.970;2023-09-30T14:48:14;8.17;;;2.13;;
14766;SDS011;7475;53.558;9.970;2023-09-30T14:50:47;21.30;;;13.95;;
14766;SDS011;7475;53.558;9.970;2023-09-30T14:53:12;10.85;;;4.45;;
14766;SDS011;7475;53.558;9.970;2023-09-30T14:55:38;8.03;;;4.03;;
14766;SDS011;7475;53.558;9.970;2023-09-30T14:58:03;13.97;;;7.23;;
14766;SDS011;7475;53.558;9.970;2023-09-30T15:00:29;10.63;;;4.53;;